Time;durP1;ratioP1;P1;durP2;ratioP2;P2;SDS_P1;SDS_P2;PMS_P1;PMS_P2;Temp;Humidity;BMP_temperature;BMP_pressure;BME280_temperature;BME280_humidity;BME280_pressure;Samples;Min_cycle;Max_cycle;Signal;HPM_P1;HPM_P2
2021/08/18 00:00:21;;;;;;;0.00;0.00;;;22.80;69.10;;;;;;4939892;29;20045;-89
2021/08/18 00:02:47;;;;;;;0.10;0.10;;;22.80;69.30;;;;;;4940112;29;20440;-88
2021/08/18 00:05:14;;;;;;;0.17;0.00;;;22.80;69.30;;;;;;4939460;29;20023;-88
2021/08/18 00:07:41;;;;;;;0.00;0.00;;;22.80;69.50;;;;;;4939881;29;20043;-85
2021/08/18 00:10:09;;;;;;;0.00;0.00;;;22.70;69.50;;;;;;4942960;29;20023;-86
2021/08/18 00:12:35;;;;;;;0.00;0.00;;;22.80;69.60;;;;;;4973453;28;20035;-86
2021/08/18 00:15:01;;;;;;;0.00;0.00;;;22.80;69.50;;;;;;4939790;29;20027;-86
2021/08/18 00:17:26;;;;;;;0.00;0.00;;;22.80;69.50;;;;;;4939659;29;20027;-88
2021/08/18 00:19:52;;;;;;;0.00;0.00;;;22.80;69.30;;;;;;4940062;29;20042;-86
2021/08/18 00:22:18;;;;;;;0.03;0.03;;;22.80;69.30;;;;;;4939988;29;20057;-86
2021/08/18 00:24:44;;;;;;;0.00;0.00;;;22.80;69.20;;;;;;4940697;29;20434;-86
2021/08/18 00:27:09;;;;;;;0.00;0.00;;;22.80;69.20;;;;;;4939908;29;20105;-86
2021/08/18 00:29:35;;;;;;;0.00;0.00;;;22.70;69.90;;;;;;4956697;29;20106;-86
2021/08/18 00:32:01;;;;;;;0.00;0.00;;;22.70;69.30;;;;;;4945177;29;20023;-86
2021/08/18 00:34:27;;;;;;;0.10;0.10;;;22.70;69.50;;;;;;4966055;29;20027;-86
2021/08/18 00:36:52;;;;;;;0.00;0.00;;;22.60;69.50;;;;;;4951447;29;20038;-86
2021/08/18 00:39:18;;;;;;;0.00;0.00;;;22.60;69.60;;;;;;4956304;29;20035;-86
2021/08/18 00:41:45;;;;;;;0.00;0.00;;;22.60;69.80;;;;;;4939363;29;20078;-86
2021/08/18 00:44:10;;;;;;;0.00;0.00;;;22.50;69.90;;;;;;4939839;29;20380;-88
2021/08/18 00:46:51;;;;;;;0.00;0.00;;;22.50;70.10;;;;;;4939522;29;20035;-86
2021/08/18 00:49:18;;;;;;;0.00;0.00;;;22.50;70.10;;;;;;4939477;29;20047;-86
2021/08/18 00:51:44;;;;;;;0.00;0.00;;;22.40;70.20;;;;;;4939390;29;20114;-86
2021/08/18 00:54:10;;;;;;;0.10;0.10;;;22.30;70.50;;;;;;4939753;29;20070;-86
2021/08/18 00:56:35;;;;;;;0.00;0.00;;;22.30;70.50;;;;;;4940118;29;20069;-86
2021/08/18 00:59:01;;;;;;;0.00;0.00;;;22.30;70.70;;;;;;4939955;29;20130;-86
2021/08/18 01:01:27;;;;;;;0.00;0.00;;;22.30;70.80;;;;;;4958048;29;20027;-86
2021/08/18 01:03:53;;;;;;;0.00;0.00;;;22.30;70.80;;;;;;4950575;29;20019;-86
2021/08/18 01:06:19;;;;;;;0.03;0.03;;;22.20;70.70;;;;;;4958239;29;20039;-88
2021/08/18 01:08:45;;;;;;;0.00;0.00;;;22.20;70.80;;;;;;4958424;29;20029;-88
2021/08/18 01:11:10;;;;;;;0.10;0.10;;;22.20;70.80;;;;;;4959306;29;20038;-89
2021/08/18 01:13:37;;;;;;;0.00;0.00;;;22.20;70.80;;;;;;4958231;29;20042;-88
2021/08/18 01:16:03;;;;;;;0.00;0.00;;;22.30;71.00;;;;;;4956984;29;20027;-88
2021/08/18 01:18:29;;;;;;;0.00;0.00;;;22.20;70.90;;;;;;4955302;29;20099;-86
2021/08/18 01:20:55;;;;;;;0.10;0.10;;;22.20;70.90;;;;;;4941577;29;20552;-88
2021/08/18 01:23:21;;;;;;;0.00;0.00;;;22.20;71.10;;;;;;4956056;29;20031;-89
2021/08/18 01:25:47;;;;;;;0.00;0.00;;;22.20;71.10;;;;;;4939205;29;20090;-90
2021/08/18 01:28:14;;;;;;;0.00;0.00;;;22.10;71.10;;;;;;4938962;29;20474;-86
2021/08/18 01:30:40;;;;;;;0.00;0.00;;;22.20;71.30;;;;;;4939071;29;20038;-88
2021/08/18 01:33:09;;;;;;;0.00;0.00;;;22.10;71.30;;;;;;4938725;29;20049;-89
2021/08/18 01:35:41;;;;;;;0.00;0.00;;;22.10;71.30;;;;;;4938680;29;20531;-88
2021/08/18 01:38:09;;;;;;;0.00;0.00;;;22.10;71.40;;;;;;4940785;29;20122;-89
2021/08/18 01:40:35;;;;;;;0.10;0.10;;;22.10;71.60;;;;;;4948796;29;20043;-86
2021/08/18 01:43:02;;;;;;;0.00;0.00;;;22.00;71.70;;;;;;4976989;29;20035;-86
2021/08/18 01:45:34;;;;;;;0.00;0.00;;;22.00;71.80;;;;;;4976113;29;20032;-86
2021/08/18 01:48:31;;;;;;;0.00;0.00;;;22.00;71.90;;;;;;4948534;29;20057;-89
2021/08/18 01:50:58;;;;;;;0.10;0.10;;;22.00;72.00;;;;;;4938035;29;20058;-86
2021/08/18 01:53:32;;;;;;;0.10;0.10;;;21.90;72.20;;;;;;4939853;29;20030;-85
2021/08/18 01:56:06;;;;;;;0.00;0.00;;;21.90;72.90;;;;;;4941357;29;20086;-85
2021/08/18 01:58:34;;;;;;;0.10;0.10;;;21.80;72.90;;;;;;4957653;29;20019;-85
2021/08/18 02:01:00;;;;;;;0.00;0.00;;;21.70;73.00;;;;;;4948997;29;20453;-86
2021/08/18 02:03:26;;;;;;;0.10;0.10;;;21.60;73.20;;;;;;4944915;29;20085;-84
2021/08/18 02:05:51;;;;;;;0.00;0.00;;;21.60;73.40;;;;;;4961781;29;20083;-85
2021/08/18 02:08:17;;;;;;;0.00;0.00;;;21.50;73.60;;;;;;4946626;29;20035;-86
2021/08/18 02:10:43;;;;;;;0.00;0.00;;;21.40;73.90;;;;;;4943253;29;20580;-85
2021/08/18 02:13:10;;;;;;;0.00;0.00;;;21.30;74.10;;;;;;4959527;29;20028;-85
2021/08/18 02:15:36;;;;;;;0.10;0.10;;;21.20;74.40;;;;;;4942027;29;20038;-86
2021/08/18 02:18:04;;;;;;;0.00;0.00;;;21.20;74.60;;;;;;4942449;29;20038;-86
2021/08/18 02:20:32;;;;;;;0.00;0.00;;;21.10;74.70;;;;;;4941891;29;20404;-85
2021/08/18 02:22:58;;;;;;;0.00;0.00;;;21.10;74.80;;;;;;4942012;29;20366;-85
2021/08/18 02:25:24;;;;;;;0.00;0.00;;;21.10;74.70;;;;;;4945237;29;20034;-87
2021/08/18 02:27:50;;;;;;;0.10;0.10;;;21.10;74.70;;;;;;4950917;29;20066;-85
2021/08/18 02:30:19;;;;;;;0.00;0.00;;;21.10;74.60;;;;;;4946597;29;20043;-86
2021/08/18 02:32:45;;;;;;;0.00;0.00;;;21.10;74.60;;;;;;4941548;29;20090;-88
2021/08/18 02:35:12;;;;;;;0.00;0.00;;;21.10;74.60;;;;;;4941789;29;20019;-88
2021/08/18 02:37:38;;;;;;;0.03;0.03;;;21.20;74.70;;;;;;4962036;29;20074;-88
2021/08/18 02:40:06;;;;;;;0.00;0.00;;;21.20;74.70;;;;;;4959039;29;20032;-86
2021/08/18 02:42:32;;;;;;;0.00;0.00;;;21.30;74.70;;;;;;4941591;29;20062;-85
2021/08/18 02:44:58;;;;;;;0.05;0.05;;;21.30;74.60;;;;;;4941613;29;20073;-85
2021/08/18 02:47:23;;;;;;;0.00;0.00;;;21.30;74.70;;;;;;4958770;29;20036;-85
2021/08/18 02:49:49;;;;;;;0.03;0.03;;;21.30;74.90;;;;;;4941991;29;20030;-85
2021/08/18 02:52:15;;;;;;;0.00;0.00;;;21.30;75.20;;;;;;4953081;28;20054;-85
2021/08/18 02:54:41;;;;;;;0.00;0.00;;;21.30;75.30;;;;;;4959191;29;20031;-85
2021/08/18 02:57:07;;;;;;;0.00;0.00;;;21.30;75.40;;;;;;4952708;29;20035;-85
2021/08/18 02:59:32;;;;;;;0.00;0.00;;;21.30;75.60;;;;;;4956111;29;20019;-85
2021/08/18 03:01:58;;;;;;;0.03;0.03;;;21.20;75.80;;;;;;4981564;28;20018;-85
2021/08/18 03:04:24;;;;;;;0.00;0.00;;;21.20;76.20;;;;;;4977266;28;20034;-85
2021/08/18 03:06:50;;;;;;;0.03;0.00;;;21.20;76.40;;;;;;4940885;29;20122;-85
2021/08/18 03:09:15;;;;;;;0.00;0.00;;;21.20;76.80;;;;;;4941392;29;20042;-87
2021/08/18 03:11:41;;;;;;;0.00;0.00;;;21.20;77.20;;;;;;4943440;29;20031;-86
2021/08/18 03:14:07;;;;;;;0.00;0.00;;;21.10;77.50;;;;;;4940798;29;20118;-86
2021/08/18 03:16:33;;;;;;;0.00;0.00;;;21.10;78.00;;;;;;4940909;29;20390;-86
2021/08/18 03:18:58;;;;;;;0.00;0.00;;;21.10;78.40;;;;;;4940345;29;20039;-87
2021/08/18 03:21:24;;;;;;;0.00;0.00;;;21.20;78.70;;;;;;4940948;29;20121;-86
2021/08/18 03:23:50;;;;;;;0.10;0.10;;;21.20;78.90;;;;;;4940441;29;20403;-87
2021/08/18 03:26:15;;;;;;;0.10;0.10;;;21.30;79.00;;;;;;4940953;29;20389;-87
2021/08/18 03:28:41;;;;;;;0.10;0.10;;;21.40;79.20;;;;;;4957505;29;20385;-86
2021/08/18 03:31:07;;;;;;;0.00;0.00;;;21.40;79.30;;;;;;4940392;29;20529;-86
2021/08/18 03:33:32;;;;;;;0.08;0.08;;;21.50;79.50;;;;;;4943148;29;20038;-86
2021/08/18 03:35:58;;;;;;;0.00;0.00;;;21.60;79.70;;;;;;4941737;29;20019;-87
2021/08/18 03:38:24;;;;;;;0.00;0.00;;;21.60;79.70;;;;;;4941419;29;20374;-87
2021/08/18 03:40:52;;;;;;;0.00;0.00;;;21.70;79.70;;;;;;4938916;29;20401;-87
2021/08/18 03:43:20;;;;;;;0.00;0.00;;;21.80;79.80;;;;;;4963754;29;20083;-86
2021/08/18 03:45:46;;;;;;;0.00;0.00;;;21.90;79.80;;;;;;4949433;29;20050;-86
2021/08/18 03:48:11;;;;;;;0.00;0.00;;;21.90;79.90;;;;;;4946973;29;20023;-86
2021/08/18 03:50:37;;;;;;;0.08;0.08;;;22.00;80.00;;;;;;4942110;29;20113;-86
2021/08/18 03:53:03;;;;;;;0.00;0.00;;;22.00;80.60;;;;;;4941432;29;20170;-87
2021/08/18 03:55:28;;;;;;;0.00;0.00;;;22.10;80.30;;;;;;4940578;29;20039;-88
2021/08/18 03:57:54;;;;;;;0.00;0.00;;;22.10;80.50;;;;;;4939852;29;20030;-88
2021/08/18 04:00:21;;;;;;;0.10;0.10;;;22.10;80.60;;;;;;4939317;29;20053;-86
2021/08/18 04:02:47;;;;;;;0.10;0.10;;;22.20;80.90;;;;;;4939607;29;20121;-87
2021/08/18 04:05:13;;;;;;;0.00;0.00;;;22.20;81.10;;;;;;4939908;29;20039;-87
2021/08/18 04:07:39;;;;;;;0.00;0.00;;;22.20;81.20;;;;;;4958167;29;20389;-86
2021/08/18 04:10:06;;;;;;;0.10;0.10;;;22.30;81.20;;;;;;4949707;29;20031;-86
2021/08/18 04:12:44;;;;;;;0.10;0.10;;;22.50;81.20;;;;;;4952211;29;20023;-88
2021/08/18 04:15:10;;;;;;;0.30;0.05;;;22.50;81.10;;;;;;4954101;29;20043;-87
2021/08/18 04:17:35;;;;;;;0.00;0.00;;;22.60;80.80;;;;;;4950458;29;20035;-87
2021/08/18 04:20:01;;;;;;;0.00;0.00;;;22.80;80.50;;;;;;4940207;29;20397;-88
2021/08/18 04:22:27;;;;;;;0.00;0.00;;;22.90;80.30;;;;;;4940857;29;20477;-88
2021/08/18 04:24:52;;;;;;;0.00;0.00;;;23.00;80.20;;;;;;4941901;29;20400;-87
2021/08/18 04:27:18;;;;;;;0.10;0.10;;;23.10;79.90;;;;;;4940113;29;20070;-87
2021/08/18 04:29:44;;;;;;;0.00;0.00;;;23.20;79.60;;;;;;4959778;28;20043;-87
2021/08/18 04:32:09;;;;;;;0.00;0.00;;;23.30;79.40;;;;;;4980162;28;20028;-87
2021/08/18 04:34:35;;;;;;;0.00;0.00;;;23.40;79.70;;;;;;4953719;28;20046;-88
2021/08/18 04:37:10;;;;;;;0.00;0.00;;;23.60;79.10;;;;;;4939883;29;20023;-88
2021/08/18 04:39:36;;;;;;;0.10;0.10;;;23.70;78.70;;;;;;4959375;28;20094;-87
2021/08/18 04:42:02;;;;;;;0.00;0.00;;;23.80;78.30;;;;;;4961940;28;20027;-88
2021/08/18 04:44:27;;;;;;;0.10;0.10;;;23.90;78.60;;;;;;4960626;29;20042;-88
2021/08/18 04:46:53;;;;;;;0.00;0.00;;;24.00;77.60;;;;;;4952850;29;20118;-88
2021/08/18 04:49:19;;;;;;;0.10;0.10;;;24.10;77.20;;;;;;4968101;29;20011;-88
2021/08/18 04:51:44;;;;;;;0.08;0.08;;;24.30;76.90;;;;;;4963373;28;20023;-87
2021/08/18 04:54:10;;;;;;;0.00;0.00;;;24.40;76.50;;;;;;4961712;28;20102;-88
2021/08/18 04:56:36;;;;;;;0.00;0.00;;;24.50;76.00;;;;;;4939606;29;20067;-88
2021/08/18 04:59:01;;;;;;;0.00;0.00;;;24.70;75.60;;;;;;4956272;29;20106;-88
2021/08/18 05:01:27;;;;;;;0.00;0.00;;;24.80;75.70;;;;;;4940204;29;20473;-88
2021/08/18 05:03:53;;;;;;;0.05;0.05;;;25.10;75.90;;;;;;4956395;29;20027;-88
2021/08/18 05:06:18;;;;;;;0.00;0.00;;;25.50;75.50;;;;;;4939820;29;20027;-88
2021/08/18 05:08:44;;;;;;;0.00;0.00;;;25.90;75.10;;;;;;4940296;29;20031;-88
2021/08/18 05:11:10;;;;;;;0.77;0.00;;;26.30;74.50;;;;;;4939823;29;20477;-88
2021/08/18 05:13:35;;;;;;;0.10;0.10;;;26.60;73.30;;;;;;4937723;29;20042;-89
2021/08/18 05:16:01;;;;;;;0.00;0.00;;;27.10;72.30;;;;;;4937397;29;20059;-88
2021/08/18 05:18:27;;;;;;;0.00;0.00;;;27.40;71.50;;;;;;4937333;29;20035;-88
2021/08/18 05:20:53;;;;;;;0.00;0.00;;;27.80;70.70;;;;;;4937366;29;20039;-88
2021/08/18 05:23:20;;;;;;;0.00;0.00;;;28.20;69.70;;;;;;4938744;29;20042;-88
2021/08/18 05:25:46;;;;;;;0.00;0.00;;;28.50;68.70;;;;;;4956694;29;20019;-88
2021/08/18 05:28:13;;;;;;;0.00;0.00;;;28.80;67.60;;;;;;4939446;29;20043;-88
2021/08/18 05:30:40;;;;;;;0.00;0.00;;;29.10;66.90;;;;;;4940885;29;20417;-87
2021/08/18 05:33:05;;;;;;;0.00;0.00;;;29.30;65.70;;;;;;4942973;29;20031;-88
2021/08/18 05:35:31;;;;;;;0.00;0.00;;;29.40;65.30;;;;;;4943780;29;20031;-88
2021/08/18 05:37:57;;;;;;;0.00;0.00;;;29.60;64.80;;;;;;4950612;28;20027;-88
2021/08/18 05:40:22;;;;;;;0.00;0.00;;;29.80;64.40;;;;;;4960614;29;20504;-88
2021/08/18 05:42:48;;;;;;;0.00;0.00;;;30.10;63.80;;;;;;4962365;29;20019;-87
2021/08/18 05:45:14;;;;;;;0.00;0.00;;;30.20;63.20;;;;;;4950590;29;20054;-88
2021/08/18 05:47:40;;;;;;;0.00;0.00;;;30.40;63.00;;;;;;4957485;29;20032;-88
2021/08/18 05:50:06;;;;;;;0.00;0.00;;;30.70;62.40;;;;;;4958706;29;20067;-88
2021/08/18 05:52:32;;;;;;;0.00;0.00;;;30.90;62.10;;;;;;4959216;29;20023;-89
2021/08/18 05:55:02;;;;;;;0.00;0.00;;;31.10;61.40;;;;;;4947944;29;20062;-88
2021/08/18 05:57:28;;;;;;;0.00;0.00;;;31.60;60.90;;;;;;4943198;29;20122;-88
2021/08/18 05:59:54;;;;;;;0.00;0.00;;;32.00;60.20;;;;;;4943767;29;20062;-89
2021/08/18 06:02:20;;;;;;;0.00;0.00;;;32.20;59.90;;;;;;4942823;29;20061;-88
2021/08/18 06:04:45;;;;;;;0.00;0.00;;;32.50;59.10;;;;;;4942844;29;20050;-87
2021/08/18 06:07:11;;;;;;;0.00;0.00;;;32.70;58.60;;;;;;4944064;29;20106;-88
2021/08/18 06:09:37;;;;;;;0.00;0.00;;;33.00;58.10;;;;;;4975506;28;20145;-86
2021/08/18 06:12:05;;;;;;;0.00;0.00;;;33.30;57.50;;;;;;4981724;28;20075;-86
2021/08/18 06:14:31;;;;;;;0.00;0.00;;;33.50;57.10;;;;;;4963708;29;20473;-88
2021/08/18 06:16:56;;;;;;;0.00;0.00;;;33.70;56.70;;;;;;4942438;29;20074;-88
2021/08/18 06:19:22;;;;;;;0.00;0.00;;;34.00;56.10;;;;;;4942659;29;20043;-87
2021/08/18 06:21:48;;;;;;;0.00;0.00;;;34.20;55.70;;;;;;4942956;29;20027;-87
2021/08/18 06:26:49;;;;;;;0.00;0.00;;;34.60;54.80;;;;;;4958099;29;20432;-86
2021/08/18 06:29:14;;;;;;;0.00;0.00;;;34.90;54.40;;;;;;4940546;29;20085;-87
2021/08/18 06:31:40;;;;;;;0.00;0.00;;;35.00;54.00;;;;;;4941036;29;20069;-85
2021/08/18 06:34:05;;;;;;;0.00;0.00;;;35.20;53.60;;;;;;4941116;29;20027;-86
2021/08/18 06:36:31;;;;;;;0.00;0.00;;;35.50;53.00;;;;;;4941115;29;20022;-86
2021/08/18 06:38:57;;;;;;;0.00;0.00;;;35.80;52.50;;;;;;4959735;29;20023;-87
2021/08/18 06:41:22;;;;;;;0.00;0.00;;;36.00;51.90;;;;;;4942340;28;20039;-87
2021/08/18 06:43:48;;;;;;;0.00;0.00;;;36.20;51.60;;;;;;4970244;29;20027;-86
2021/08/18 06:46:14;;;;;;;0.00;0.00;;;36.40;51.20;;;;;;4947364;29;20066;-88
2021/08/18 06:48:40;;;;;;;0.00;0.00;;;36.40;50.90;;;;;;4943716;29;20396;-87
2021/08/18 06:51:05;;;;;;;0.00;0.00;;;36.50;50.70;;;;;;4947526;29;20428;-87
2021/08/18 06:53:31;;;;;;;0.00;0.00;;;36.40;50.50;;;;;;4959495;29;20046;-86
2021/08/18 06:55:57;;;;;;;0.10;0.10;;;36.70;50.60;;;;;;4978065;29;20043;-87
2021/08/18 06:58:26;;;;;;;0.00;0.00;;;36.90;50.30;;;;;;4950778;29;20035;-87
2021/08/18 07:00:51;;;;;;;0.05;0.05;;;37.00;49.90;;;;;;4945211;29;20098;-87
2021/08/18 07:03:17;;;;;;;0.00;0.00;;;37.30;50.30;;;;;;4943373;29;20027;-86
2021/08/18 07:05:43;;;;;;;0.00;0.00;;;37.60;49.50;;;;;;4942218;29;20039;-87
2021/08/18 07:08:08;;;;;;;0.00;0.00;;;37.90;48.90;;;;;;4942638;29;20023;-85
2021/08/18 07:10:34;;;;;;;0.00;0.00;;;38.20;48.60;;;;;;4943071;29;20038;-85
2021/08/18 07:13:00;;;;;;;0.00;0.00;;;38.30;48.20;;;;;;4942137;29;20481;-86
2021/08/18 07:15:25;;;;;;;0.00;0.00;;;38.60;47.90;;;;;;4942255;29;20135;-85
2021/08/18 07:17:51;;;;;;;0.00;0.00;;;38.60;47.50;;;;;;4958978;29;20027;-86
2021/08/18 07:20:17;;;;;;;0.00;0.00;;;38.90;47.60;;;;;;4942110;29;20098;-86
2021/08/18 07:22:43;;;;;;;0.00;0.00;;;39.20;47.40;;;;;;4941096;29;20070;-86
2021/08/18 07:25:09;;;;;;;0.10;0.10;;;39.50;47.10;;;;;;4954336;29;20035;-86
2021/08/18 07:27:35;;;;;;;0.10;0.10;;;39.70;46.60;;;;;;4964032;29;20059;-86
2021/08/18 07:30:00;;;;;;;0.10;0.10;;;39.90;46.30;;;;;;4957274;28;20500;-86
2021/08/18 07:32:26;;;;;;;0.10;0.10;;;40.20;46.30;;;;;;4943885;29;20031;-86
2021/08/18 07:34:52;;;;;;;0.05;0.05;;;40.40;46.00;;;;;;4941565;29;20039;-86
2021/08/18 07:37:18;;;;;;;0.10;0.10;;;40.60;45.40;;;;;;4942280;29;20023;-87
2021/08/18 07:39:44;;;;;;;0.10;0.10;;;40.60;45.10;;;;;;4941266;29;20044;-88
2021/08/18 07:42:11;;;;;;;0.10;0.10;;;40.70;44.80;;;;;;4941213;29;20030;-86
2021/08/18 07:44:38;;;;;;;0.10;0.10;;;40.70;44.70;;;;;;4943094;29;21097;-87
2021/08/18 07:47:04;;;;;;;0.10;0.10;;;41.00;44.50;;;;;;4955941;29;20027;-88
2021/08/18 07:49:30;;;;;;;0.10;0.10;;;41.20;44.20;;;;;;4940954;29;20039;-86
2021/08/18 07:51:55;;;;;;;0.10;0.10;;;41.40;44.00;;;;;;4938096;29;20027;-87
2021/08/18 07:54:21;;;;;;;0.10;0.10;;;41.20;43.70;;;;;;4955608;28;20036;-86
2021/08/18 07:56:46;;;;;;;0.10;0.10;;;41.30;43.70;;;;;;4941860;29;20102;-86
2021/08/18 07:59:12;;;;;;;0.10;0.10;;;41.50;43.60;;;;;;4942908;29;20031;-87
2021/08/18 08:01:38;;;;;;;0.00;0.00;;;41.70;43.60;;;;;;4942388;29;20058;-86
2021/08/18 08:04:04;;;;;;;0.10;0.10;;;41.80;43.10;;;;;;4944001;29;20054;-86
2021/08/18 08:06:30;;;;;;;0.10;0.10;;;41.90;43.00;;;;;;4970449;29;20024;-88
2021/08/18 08:08:58;;;;;;;0.10;0.10;;;42.00;43.20;;;;;;4953411;29;20035;-86
2021/08/18 08:11:24;;;;;;;0.10;0.10;;;42.20;42.90;;;;;;4956370;29;20352;-87
2021/08/18 08:13:49;;;;;;;0.10;0.10;;;42.50;42.70;;;;;;4958864;29;20034;-87
2021/08/18 08:16:15;;;;;;;0.13;0.13;;;42.60;42.10;;;;;;4948278;28;20038;-87
2021/08/18 08:18:41;;;;;;;0.20;0.20;;;42.50;42.00;;;;;;4936601;29;20118;-87
2021/08/18 08:21:13;;;;;;;0.10;0.10;;;42.50;42.00;;;;;;4938870;29;20503;-90
2021/08/18 08:23:38;;;;;;;0.10;0.10;;;42.50;41.80;;;;;;4940899;29;20035;-84
2021/08/18 08:26:05;;;;;;;0.10;0.10;;;42.50;41.90;;;;;;4941205;29;20102;-85
2021/08/18 08:28:30;;;;;;;0.10;0.10;;;42.70;41.90;;;;;;4941484;29;20552;-85
2021/08/18 08:30:56;;;;;;;0.10;0.10;;;42.60;41.70;;;;;;4958854;29;20086;-84
2021/08/18 08:33:22;;;;;;;0.10;0.10;;;42.90;41.40;;;;;;4951002;29;20165;-85
2021/08/18 08:35:48;;;;;;;0.10;0.10;;;43.30;41.20;;;;;;4941499;29;20035;-86
2021/08/18 08:38:15;;;;;;;0.10;0.10;;;43.30;41.00;;;;;;4944741;29;20052;-83
2021/08/18 08:40:43;;;;;;;0.10;0.10;;;43.50;41.10;;;;;;4976167;29;20047;-85
2021/08/18 08:43:11;;;;;;;0.10;0.10;;;43.60;41.10;;;;;;4970206;29;20034;-86
2021/08/18 08:45:38;;;;;;;0.10;0.10;;;43.40;40.70;;;;;;4963289;29;20043;-85
2021/08/18 08:48:06;;;;;;;0.10;0.10;;;43.50;40.70;;;;;;4941056;29;20031;-84
2021/08/18 08:50:33;;;;;;;0.20;0.20;;;43.70;40.80;;;;;;4941819;29;20062;-88
2021/08/18 08:52:58;;;;;;;0.13;0.13;;;43.90;40.70;;;;;;4940425;29;20023;-85
2021/08/18 08:55:24;;;;;;;0.20;0.20;;;44.00;40.50;;;;;;4959156;29;20039;-85
2021/08/18 08:57:54;;;;;;;0.20;0.20;;;44.10;40.30;;;;;;4942000;29;20064;-84
2021/08/18 09:00:21;;;;;;;0.20;0.20;;;44.40;40.10;;;;;;4940586;29;20051;-84
2021/08/18 09:02:47;;;;;;;0.20;0.20;;;44.60;39.90;;;;;;4957856;29;20390;-86
2021/08/18 09:05:26;;;;;;;0.15;0.15;;;44.90;39.90;;;;;;4954567;29;20039;-86
2021/08/18 09:07:57;;;;;;;0.20;0.20;;;44.80;39.30;;;;;;4937750;29;20019;-87
2021/08/18 09:10:23;;;;;;;0.20;0.20;;;44.80;39.50;;;;;;4953336;29;20027;-88
2021/08/18 09:12:49;;;;;;;0.20;0.20;;;44.80;39.80;;;;;;4935888;29;20054;-85
2021/08/18 09:15:25;;;;;;;0.20;0.20;;;44.70;39.80;;;;;;4952821;29;20478;-87
2021/08/18 09:17:53;;;;;;;0.20;0.20;;;44.60;39.30;;;;;;4936876;29;20311;-87
2021/08/18 09:20:29;;;;;;;0.20;0.20;;;44.50;39.70;;;;;;4944213;29;20044;-86
2021/08/18 09:22:57;;;;;;;0.20;0.20;;;44.60;39.30;;;;;;4954391;29;20412;-85
2021/08/18 09:25:30;;;;;;;0.20;0.20;;;44.80;39.60;;;;;;4950821;29;20465;-86
2021/08/18 09:28:02;;;;;;;0.20;0.20;;;45.00;39.60;;;;;;4944899;29;20033;-87
2021/08/18 09:30:35;;;;;;;0.20;0.20;;;45.60;39.40;;;;;;4940194;29;20393;-86
2021/08/18 09:33:12;;;;;;;0.20;0.20;;;45.90;38.80;;;;;;4940372;29;20039;-87
2021/08/18 09:35:39;;;;;;;0.20;0.20;;;46.20;38.70;;;;;;4949891;29;20020;-87
2021/08/18 09:38:06;;;;;;;0.20;0.20;;;45.90;38.50;;;;;;4972635;23;20044;-89
2021/08/18 09:40:36;;;;;;;0.20;0.20;;;45.80;38.60;;;;;;4991598;28;20575;-89
2021/08/18 09:43:21;;;;;;;0.20;0.20;;;45.80;38.70;;;;;;4993195;28;20037;-89
2021/08/18 09:46:06;;;;;;;0.20;0.20;;;45.70;38.60;;;;;;4993895;28;20392;-90
2021/08/18 09:48:33;;;;;;;0.20;0.20;;;45.80;38.20;;;;;;4993617;28;20031;-90
2021/08/18 09:51:01;;;;;;;0.20;0.20;;;45.90;38.80;;;;;;4994293;28;20488;-88
2021/08/18 09:53:32;;;;;;;0.30;0.30;;;45.90;38.50;;;;;;4996620;28;20117;-88
2021/08/18 09:56:05;;;;;;;0.20;0.20;;;46.00;38.10;;;;;;4996865;28;20019;-88
2021/08/18 09:58:40;;;;;;;0.20;0.20;;;46.10;37.80;;;;;;4993003;28;20098;-89
2021/08/18 10:01:11;;;;;;;0.20;0.20;;;46.20;37.90;;;;;;4993275;28;20042;-89
2021/08/18 10:03:52;;;;;;;0.20;0.20;;;46.20;37.90;;;;;;4991886;28;20049;-90
2021/08/18 10:06:18;;;;;;;0.20;0.20;;;46.50;37.70;;;;;;4991853;28;20404;-90
2021/08/18 10:08:46;;;;;;;0.13;0.13;;;45.90;37.50;;;;;;4991936;28;20026;-89
2021/08/18 10:11:17;;;;;;;0.20;0.20;;;45.90;37.60;;;;;;4992667;28;20480;-89
2021/08/18 10:13:43;;;;;;;;;;;46.10;38.20;;;;;;4993971;28;20120;-89
2021/08/18 10:16:09;;;;;;;0.20;0.20;;;46.30;38.20;;;;;;4994073;28;20303;-88
2021/08/18 10:18:42;;;;;;;0.20;0.20;;;46.60;38.20;;;;;;4999230;28;20062;-88
2021/08/18 10:21:09;;;;;;;0.20;0.20;;;46.80;37.90;;;;;;4999560;28;20096;-89
2021/08/18 10:23:58;;;;;;;0.22;0.22;;;46.90;37.40;;;;;;4996496;28;20154;-89
2021/08/18 10:26:36;;;;;;;0.20;0.20;;;46.70;37.20;;;;;;4996704;28;20031;-89
2021/08/18 10:29:20;;;;;;;0.20;0.20;;;46.30;37.00;;;;;;4997632;28;20027;-89
2021/08/18 10:31:47;;;;;;;0.20;0.20;;;45.80;38.50;;;;;;4999099;28;20073;-88
2021/08/18 10:34:22;;;;;;;0.10;0.10;;;45.80;37.90;;;;;;4997139;28;20507;-89
2021/08/18 10:36:51;;;;;;;0.20;0.20;;;45.70;37.50;;;;;;4997572;28;20022;-88
2021/08/18 10:39:26;;;;;;;0.20;0.20;;;45.80;37.90;;;;;;5010684;23;20057;-91
2021/08/18 10:42:17;;;;;;;0.20;0.20;;;46.30;37.70;;;;;;4995546;28;20109;-90
2021/08/18 10:44:49;;;;;;;0.20;0.20;;;46.80;37.40;;;;;;4995397;28;20042;-89
2021/08/18 10:47:19;;;;;;;0.20;0.20;;;47.00;37.30;;;;;;4995503;28;20088;-91
2021/08/18 10:55:01;;;;;;;0.20;0.20;;;47.00;37.00;;;;;;4979267;28;20054;-89
2021/08/18 10:57:36;;;;;;;0.20;0.20;;;46.60;37.10;;;;;;4970296;28;20031;-87
2021/08/18 11:00:10;;;;;;;0.20;0.20;;;46.30;37.00;;;;;;4980926;28;20069;-88
2021/08/18 11:02:57;;;;;;;0.20;0.20;;;45.40;37.20;;;;;;4984758;28;20023;-89
2021/08/18 11:05:30;;;;;;;0.20;0.20;;;45.40;37.80;;;;;;4978060;28;20037;-90
2021/08/18 11:08:04;;;;;;;0.20;0.20;;;45.50;37.90;;;;;;4982052;28;20034;-89
2021/08/18 11:10:31;;;;;;;0.20;0.20;;;45.80;37.70;;;;;;4960886;28;20031;-88
2021/08/18 11:12:58;;;;;;;0.20;0.20;;;46.00;37.60;;;;;;4961788;28;20030;-88
2021/08/18 11:15:24;;;;;;;0.20;0.20;;;46.10;37.50;;;;;;4959723;28;20161;-88
2021/08/18 11:17:52;;;;;;;0.20;0.20;;;46.30;37.40;;;;;;4960744;28;20066;-89
2021/08/18 11:20:19;;;;;;;0.20;0.20;;;46.20;37.30;;;;;;4959845;28;20042;-87
2021/08/18 11:22:51;;;;;;;0.20;0.20;;;46.20;37.40;;;;;;4960889;28;20191;-89
2021/08/18 11:25:18;;;;;;;;;;;46.20;37.30;;;;;;4959929;28;20019;-90
2021/08/18 11:27:48;;;;;;;0.20;0.20;;;46.20;37.40;;;;;;4959882;28;19914;-88
2021/08/18 11:30:15;;;;;;;0.20;0.20;;;46.50;37.50;;;;;;4958724;28;20451;-92
2021/08/18 11:32:41;;;;;;;0.20;0.20;;;46.60;37.60;;;;;;4958703;28;20035;-88
2021/08/18 11:35:07;;;;;;;0.20;0.20;;;46.90;37.60;;;;;;4976114;28;20026;-89
2021/08/18 11:37:33;;;;;;;0.20;0.20;;;47.20;37.30;;;;;;4960175;28;20046;-89
2021/08/18 11:40:02;;;;;;;0.20;0.20;;;46.90;37.40;;;;;;4961462;28;20034;-88
2021/08/18 11:42:28;;;;;;;0.20;0.20;;;46.60;37.60;;;;;;4961743;28;20023;-88
2021/08/18 11:45:08;;;;;;;0.20;0.20;;;46.50;37.70;;;;;;4974211;28;20065;-89
2021/08/18 11:47:35;;;;;;;0.20;0.20;;;46.20;37.70;;;;;;4965274;28;20046;-89
2021/08/18 11:50:02;;;;;;;0.10;0.10;;;45.70;38.00;;;;;;4959825;28;20389;-88
2021/08/18 11:52:28;;;;;;;0.20;0.20;;;45.60;38.20;;;;;;4978310;28;20027;-89
2021/08/18 11:54:59;;;;;;;0.10;0.10;;;45.30;38.30;;;;;;4962234;28;20037;-89
2021/08/18 11:57:26;;;;;;;0.10;0.10;;;45.00;38.40;;;;;;4961165;28;20062;-88
2021/08/18 11:59:57;;;;;;;0.10;0.10;;;44.80;38.50;;;;;;4962591;28;20527;-89
2021/08/18 12:02:23;;;;;;;0.10;0.10;;;44.00;38.60;;;;;;4989130;28;20041;-87
2021/08/18 12:04:49;;;;;;;0.10;0.10;;;43.10;39.40;;;;;;4997489;28;20011;-89
2021/08/18 12:07:17;;;;;;;0.10;0.10;;;42.20;40.10;;;;;;4969899;28;20073;-89
2021/08/18 12:09:46;;;;;;;0.10;0.10;;;41.50;40.70;;;;;;4978614;28;20039;-88
2021/08/18 12:12:20;;;;;;;0.10;0.10;;;40.90;41.40;;;;;;4959883;28;20121;-87
2021/08/18 12:14:51;;;;;;;0.10;0.10;;;40.50;42.00;;;;;;4959677;28;20432;-89
2021/08/18 12:17:17;;;;;;;0.10;0.10;;;40.00;42.30;;;;;;4977312;28;20445;-88
2021/08/18 12:19:48;;;;;;;0.00;0.00;;;39.60;42.90;;;;;;4958688;28;20404;-88
2021/08/18 12:22:19;;;;;;;0.10;0.10;;;39.10;43.30;;;;;;4959418;28;20019;-88
2021/08/18 12:24:51;;;;;;;0.00;0.00;;;38.70;43.90;;;;;;4960430;28;20035;-87
